createdAt,value
2022-12-29T00:00:12.187Z,61.87
2022-12-29T00:01:04.628Z,61.84
2022-12-29T00:01:37.684Z,61.84
2022-12-29T00:02:09.828Z,61.66
2022-12-29T00:02:42.793Z,61.67
2022-12-29T00:03:15.235Z,61.73
2022-12-29T00:03:47.755Z,61.69
2022-12-29T00:04:19.963Z,61.67
2022-12-29T00:04:52.328Z,61.66
2022-12-29T00:05:24.469Z,61.59
2022-12-29T00:05:58.276Z,61.59
2022-12-29T00:06:30.665Z,61.57
2022-12-29T00:07:05.088Z,61.58
2022-12-29T00:07:37.649Z,61.60
2022-12-29T00:08:09.867Z,61.64
2022-12-29T00:08:42.080Z,61.66
2022-12-29T00:09:16.843Z,61.62
2022-12-29T00:09:49.159Z,61.62
2022-12-29T00:10:22.569Z,61.64
2022-12-29T00:10:55.328Z,61.54
2022-12-29T00:11:28.365Z,61.57
2022-12-29T00:12:02.218Z,61.65
2022-12-29T00:12:53.155Z,61.72
2022-12-29T00:13:43.843Z,61.69
2022-12-29T00:14:34.500Z,61.66
2022-12-29T00:15:26.282Z,61.47
2022-12-29T00:15:58.441Z,61.42
2022-12-29T00:16:34.383Z,61.42
2022-12-29T00:17:06.859Z,61.49
2022-12-29T00:17:39.254Z,61.45
2022-12-29T00:18:11.462Z,61.46
2022-12-29T00:18:43.999Z,61.42
2022-12-29T00:19:34.733Z,61.23
2022-12-29T00:20:25.997Z,61.30
2022-12-29T00:21:16.754Z,61.27
2022-12-29T00:22:08.457Z,61.36
2022-12-29T00:22:58.898Z,61.18
2022-12-29T00:23:49.515Z,61.12
2022-12-29T00:24:22.817Z,61.10
2022-12-29T00:25:09.973Z,61.07
2022-12-29T00:26:00.576Z,61.06
2022-12-29T00:26:51.109Z,61.05
2022-12-29T00:27:41.796Z,61.00
2022-12-29T00:28:32.739Z,60.99
2022-12-29T00:29:23.888Z,60.93
2022-12-29T00:30:14.907Z,60.86
2022-12-29T00:31:05.493Z,60.79
2022-12-29T00:31:56.306Z,60.60
2022-12-29T00:32:47.106Z,60.60
2022-12-29T00:33:40.671Z,60.44
2022-12-29T00:34:31.361Z,60.54
2022-12-29T00:35:09.638Z,60.61
2022-12-29T00:35:51.278Z,60.58
2022-12-29T00:36:32.912Z,60.59
2022-12-29T00:37:05.780Z,60.57
2022-12-29T00:38:09.631Z,60.59
2022-12-29T00:39:08.133Z,60.67
2022-12-29T00:39:58.927Z,60.72
2022-12-29T00:40:49.836Z,60.63
2022-12-29T00:41:40.395Z,60.63
2022-12-29T00:42:38.399Z,60.57
2022-12-29T00:43:29.069Z,60.52
2022-12-29T00:44:07.535Z,60.40
2022-12-29T00:44:39.880Z,60.39
2022-12-29T00:45:12.076Z,60.44
2022-12-29T00:45:44.700Z,60.48
2022-12-29T00:46:20.000Z,60.41
2022-12-29T00:46:52.533Z,60.51
2022-12-29T00:47:24.838Z,60.45
2022-12-29T00:47:56.962Z,60.54
2022-12-29T00:48:47.856Z,60.63
2022-12-29T00:49:31.723Z,60.60
2022-12-29T00:50:04.184Z,60.65
2022-12-29T00:50:36.360Z,60.61
2022-12-29T00:51:09.311Z,60.53
2022-12-29T00:51:41.571Z,60.45
2022-12-29T00:52:14.696Z,60.46
2022-12-29T00:52:46.966Z,60.42
2022-12-29T00:53:19.267Z,60.43
2022-12-29T00:53:51.480Z,60.45
2022-12-29T00:54:24.134Z,60.37
2022-12-29T00:54:56.266Z,60.33
2022-12-29T00:55:28.312Z,60.32
2022-12-29T00:56:01.574Z,60.34
2022-12-29T00:56:33.697Z,60.36
2022-12-29T00:57:08.944Z,60.40
2022-12-29T00:57:40.998Z,60.39
2022-12-29T00:58:13.136Z,60.39
2022-12-29T00:58:45.861Z,60.32
2022-12-29T00:59:19.144Z,60.34
2022-12-29T00:59:51.270Z,60.48
2022-12-29T01:00:23.301Z,60.53
2022-12-29T01:01:06.182Z,60.44
2022-12-29T01:01:39.726Z,60.38
2022-12-29T01:02:11.893Z,60.33
2022-12-29T01:02:44.048Z,60.34
2022-12-29T01:03:16.272Z,60.29
2022-12-29T01:03:49.217Z,60.30
2022-12-29T01:04:25.555Z,60.40
2022-12-29T01:04:57.619Z,60.37
2022-12-29T01:05:29.658Z,60.41
2022-12-29T01:06:03.525Z,60.42
2022-12-29T01:06:37.813Z,60.35
2022-12-29T01:07:09.785Z,60.35
2022-12-29T01:07:41.640Z,60.38
2022-12-29T01:08:14.143Z,60.33
2022-12-29T01:08:46.191Z,60.27
2022-12-29T01:09:37.317Z,60.18
2022-12-29T01:10:12.457Z,60.05
2022-12-29T01:10:44.801Z,60.02
2022-12-29T01:11:16.815Z,60.16
2022-12-29T01:11:50.573Z,60.21
2022-12-29T01:12:40.904Z,60.16
2022-12-29T01:13:12.891Z,60.25
2022-12-29T01:13:45.850Z,60.24
2022-12-29T01:14:19.516Z,60.29
2022-12-29T01:14:51.880Z,60.30
2022-12-29T01:15:24.131Z,60.21
2022-12-29T01:15:56.403Z,60.24
2022-12-29T01:16:28.717Z,60.26
2022-12-29T01:17:01.006Z,60.28
2022-12-29T01:17:33.127Z,60.26
2022-12-29T01:18:05.001Z,60.25
2022-12-29T01:18:37.070Z,60.31
2022-12-29T01:19:10.048Z,60.31
2022-12-29T01:19:42.383Z,60.35
2022-12-29T01:20:14.538Z,60.37
2022-12-29T01:20:46.482Z,60.32
2022-12-29T01:21:18.620Z,60.25
2022-12-29T01:21:51.108Z,60.06
2022-12-29T01:22:23.062Z,60.06
2022-12-29T01:22:55.990Z,60.06
2022-12-29T01:23:29.010Z,60.07
2022-12-29T01:24:01.117Z,60.11
2022-12-29T01:24:32.951Z,60.06
2022-12-29T01:25:06.187Z,60.02
2022-12-29T01:25:39.581Z,60.05
2022-12-29T01:26:13.486Z,60.06
2022-12-29T01:26:47.273Z,59.92
2022-12-29T01:27:19.630Z,59.95
2022-12-29T01:27:51.883Z,59.86
2022-12-29T01:28:26.285Z,59.85
2022-12-29T01:28:59.882Z,59.83
2022-12-29T01:29:31.947Z,59.80
2022-12-29T01:30:04.802Z,59.73
2022-12-29T01:30:37.017Z,59.64
2022-12-29T01:31:10.672Z,59.70
2022-12-29T01:31:42.647Z,59.73
2022-12-29T01:32:14.645Z,59.74
2022-12-29T01:32:46.804Z,59.72
2022-12-29T01:33:18.791Z,59.73
2022-12-29T01:33:50.715Z,59.65
2022-12-29T01:34:22.841Z,59.64
2022-12-29T01:34:54.798Z,59.66
2022-12-29T01:35:27.273Z,59.60
2022-12-29T01:36:03.529Z,59.59
2022-12-29T01:36:36.365Z,59.69
2022-12-29T01:37:08.543Z,59.73
2022-12-29T01:37:40.443Z,59.78
2022-12-29T01:38:12.440Z,59.74
2022-12-29T01:38:45.183Z,59.67
2022-12-29T01:39:17.212Z,59.65
2022-12-29T01:39:49.504Z,59.47
2022-12-29T01:40:21.879Z,59.49
2022-12-29T01:40:53.879Z,59.53
2022-12-29T01:41:26.170Z,59.49
2022-12-29T01:41:58.315Z,59.44
2022-12-29T01:42:30.336Z,59.44
2022-12-29T01:43:02.335Z,59.41
2022-12-29T01:43:54.063Z,59.35
2022-12-29T01:44:50.682Z,59.29
2022-12-29T01:45:22.978Z,59.26
2022-12-29T01:45:55.421Z,59.28
2022-12-29T01:46:42.116Z,59.24
2022-12-29T01:47:23.448Z,59.22
2022-12-29T01:48:02.474Z,59.36
2022-12-29T01:48:34.907Z,59.34
2022-12-29T01:49:16.290Z,59.29
2022-12-29T01:49:53.659Z,59.32
2022-12-29T01:50:31.232Z,59.33
2022-12-29T01:51:03.514Z,59.29
2022-12-29T01:51:49.772Z,59.35
2022-12-29T01:52:25.000Z,59.36
2022-12-29T01:52:59.262Z,59.24
2022-12-29T01:53:34.291Z,59.25
2022-12-29T01:54:14.521Z,59.38
2022-12-29T01:54:53.873Z,59.29
2022-12-29T01:55:29.934Z,59.26
2022-12-29T01:56:07.623Z,59.14
2022-12-29T01:56:39.790Z,59.07
2022-12-29T01:57:20.519Z,59.12
2022-12-29T01:57:53.737Z,59.16
2022-12-29T01:58:31.910Z,59.28
2022-12-29T01:59:13.114Z,59.09
2022-12-29T02:00:14.266Z,59.01
2022-12-29T02:00:46.446Z,59.01
2022-12-29T02:01:21.001Z,58.94
2022-12-29T02:01:53.493Z,58.89
2022-12-29T02:02:25.929Z,58.81
2022-12-29T02:02:58.509Z,58.75
2022-12-29T02:03:33.253Z,58.76
2022-12-29T02:04:05.358Z,58.78
2022-12-29T02:04:44.889Z,58.75
2022-12-29T02:05:48.073Z,58.66
2022-12-29T02:06:30.241Z,58.74
2022-12-29T02:07:11.465Z,58.69
2022-12-29T02:07:44.189Z,58.76
2022-12-29T02:08:17.252Z,58.72
2022-12-29T02:08:52.986Z,58.64
2022-12-29T02:09:25.120Z,58.57
2022-12-29T02:09:58.247Z,58.50
2022-12-29T02:10:33.893Z,58.43
2022-12-29T02:11:06.505Z,58.46
2022-12-29T02:11:40.135Z,58.50
2022-12-29T02:12:12.108Z,58.38
2022-12-29T02:12:46.013Z,58.30
2022-12-29T02:13:18.154Z,58.32
2022-12-29T02:13:50.377Z,58.26
2022-12-29T02:14:22.310Z,58.24
2022-12-29T02:15:00.797Z,58.19
2022-12-29T02:16:13.969Z,58.28
2022-12-29T02:17:14.118Z,58.36
2022-12-29T02:18:31.152Z,58.28
2022-12-29T02:19:12.112Z,58.27
2022-12-29T02:20:02.678Z,58.18
2022-12-29T02:20:34.903Z,58.00
2022-12-29T02:21:31.397Z,57.89
2022-12-29T02:22:10.505Z,57.87
2022-12-29T02:23:27.013Z,57.92
2022-12-29T02:24:24.188Z,57.99
2022-12-29T02:25:10.963Z,57.95
2022-12-29T02:26:00.911Z,57.84
2022-12-29T02:27:11.752Z,57.77
2022-12-29T02:27:53.759Z,57.86
2022-12-29T02:28:44.096Z,57.52
2022-12-29T02:29:42.279Z,57.53
2022-12-29T02:30:49.945Z,57.51
2022-12-29T02:31:51.996Z,57.53
2022-12-29T02:32:32.973Z,57.49
2022-12-29T02:33:27.835Z,57.31
2022-12-29T02:34:18.046Z,57.51
2022-12-29T02:34:56.744Z,57.27
2022-12-29T02:35:45.126Z,57.20
2022-12-29T02:36:43.481Z,57.17
2022-12-29T02:37:38.388Z,57.23
2022-12-29T02:38:31.892Z,57.14
2022-12-29T02:39:25.966Z,57.09
2022-12-29T02:40:13.624Z,57.11
2022-12-29T02:40:54.925Z,56.91
2022-12-29T02:42:04.257Z,56.78
2022-12-29T02:42:45.364Z,56.95
2022-12-29T02:43:36.318Z,56.84
2022-12-29T02:44:16.195Z,56.88
2022-12-29T02:44:53.538Z,56.87
2022-12-29T02:45:48.845Z,56.80
2022-12-29T02:46:36.675Z,56.77
2022-12-29T02:47:44.590Z,56.70
2022-12-29T02:48:55.243Z,56.68
2022-12-29T02:49:49.112Z,56.72
2022-12-29T02:50:21.321Z,56.66
2022-12-29T02:51:07.720Z,56.68
2022-12-29T02:51:44.644Z,56.74
2022-12-29T02:52:26.140Z,56.73
2022-12-29T02:53:00.590Z,56.66
2022-12-29T02:53:53.653Z,56.53
2022-12-29T02:54:44.333Z,56.28
2022-12-29T02:55:16.588Z,56.43
2022-12-29T02:55:52.897Z,56.48
2022-12-29T02:56:24.855Z,56.43
2022-12-29T02:56:56.817Z,56.34
2022-12-29T02:57:35.169Z,56.23
2022-12-29T02:58:17.147Z,56.16
2022-12-29T02:58:49.485Z,56.05
2022-12-29T02:59:22.606Z,55.90
2022-12-29T03:00:08.154Z,55.78
2022-12-29T03:00:55.504Z,55.80
2022-12-29T03:01:37.924Z,55.89
2022-12-29T03:02:18.927Z,55.93
2022-12-29T03:03:03.659Z,55.86
2022-12-29T03:04:01.056Z,55.93
2022-12-29T03:04:47.851Z,56.03
2022-12-29T03:05:30.432Z,55.98
2022-12-29T03:06:12.701Z,55.88
2022-12-29T03:07:12.041Z,55.83
2022-12-29T03:08:04.041Z,55.90
2022-12-29T03:08:50.172Z,55.94
2022-12-29T03:09:54.689Z,55.93
2022-12-29T03:10:51.673Z,55.92
2022-12-29T03:11:48.981Z,55.81
2022-12-29T03:12:48.301Z,55.59
2022-12-29T03:13:51.577Z,55.49
2022-12-29T03:15:08.230Z,55.61
2022-12-29T03:16:04.416Z,55.60
2022-12-29T03:16:47.910Z,55.46
2022-12-29T03:17:29.039Z,55.30
2022-12-29T03:18:24.384Z,55.25
2022-12-29T03:19:11.282Z,55.29
2022-12-29T03:19:49.983Z,55.30
2022-12-29T03:20:27.386Z,55.26
2022-12-29T03:21:07.301Z,55.18
2022-12-29T03:22:16.367Z,55.13
2022-12-29T03:22:52.501Z,55.30
2022-12-29T03:23:26.383Z,55.15
2022-12-29T03:23:58.583Z,55.06
2022-12-29T03:24:35.373Z,54.85
2022-12-29T03:25:13.479Z,54.89
2022-12-29T03:25:53.451Z,54.76
2022-12-29T03:26:25.577Z,54.78
2022-12-29T03:27:01.698Z,54.83
2022-12-29T03:27:39.122Z,54.80
2022-12-29T03:28:22.172Z,54.85
2022-12-29T03:28:58.008Z,54.85
2022-12-29T03:29:33.727Z,54.73
2022-12-29T03:30:07.760Z,54.61
2022-12-29T03:30:42.323Z,54.60
2022-12-29T03:31:16.794Z,54.67
2022-12-29T03:31:52.175Z,54.41
2022-12-29T03:32:34.162Z,54.62
2022-12-29T03:33:10.602Z,54.73
2022-12-29T03:33:44.889Z,54.86
2022-12-29T03:34:21.375Z,54.84
2022-12-29T03:34:55.596Z,54.77
2022-12-29T03:35:31.933Z,54.62
2022-12-29T03:36:07.881Z,54.63
2022-12-29T03:36:46.351Z,54.59
2022-12-29T03:37:24.625Z,54.65
2022-12-29T03:38:01.750Z,54.77
2022-12-29T03:38:44.723Z,54.67
2022-12-29T03:39:19.270Z,54.58
2022-12-29T03:39:51.503Z,54.43
2022-12-29T03:40:25.507Z,54.20
2022-12-29T03:41:00.976Z,53.97
2022-12-29T03:41:35.081Z,54.14
2022-12-29T03:42:18.887Z,54.12
2022-12-29T03:42:51.786Z,54.11
2022-12-29T03:43:24.131Z,54.14
2022-12-29T03:43:56.054Z,54.23
2022-12-29T03:44:39.870Z,54.33
2022-12-29T03:45:11.893Z,54.44
2022-12-29T03:45:43.958Z,54.46
2022-12-29T03:46:16.088Z,54.41
2022-12-29T03:46:48.025Z,54.46
2022-12-29T03:47:20.028Z,54.35
2022-12-29T03:47:53.800Z,54.37
2022-12-29T03:48:25.822Z,54.27
2022-12-29T03:48:57.935Z,54.28
2022-12-29T03:49:30.420Z,54.32
2022-12-29T03:50:02.782Z,54.36
2022-12-29T03:50:34.758Z,54.29
2022-12-29T03:51:06.723Z,54.13
2022-12-29T03:51:38.693Z,53.93
2022-12-29T03:52:10.579Z,53.95
2022-12-29T03:52:42.642Z,54.05
2022-12-29T03:53:14.683Z,54.11
2022-12-29T03:53:46.646Z,54.26
2022-12-29T03:54:18.698Z,54.20
2022-12-29T03:54:50.680Z,54.16
2022-12-29T03:55:22.745Z,54.10
2022-12-29T03:55:54.775Z,53.93
2022-12-29T03:56:26.817Z,53.99
2022-12-29T03:56:59.122Z,54.06
2022-12-29T03:57:31.239Z,54.16
2022-12-29T03:58:03.155Z,54.21
2022-12-29T03:58:35.426Z,54.27
2022-12-29T03:59:07.612Z,54.25
2022-12-29T03:59:39.485Z,54.30
2022-12-29T04:00:12.454Z,54.37
2022-12-29T04:00:44.543Z,54.33
2022-12-29T04:01:16.834Z,54.35
2022-12-29T04:01:50.563Z,54.26
2022-12-29T04:02:22.882Z,54.22
2022-12-29T04:02:55.612Z,54.19
2022-12-29T04:03:27.772Z,54.18
2022-12-29T04:03:59.932Z,54.17
2022-12-29T04:04:31.888Z,54.20
2022-12-29T04:05:05.142Z,54.29
2022-12-29T04:05:37.022Z,54.22
2022-12-29T04:06:09.353Z,54.19
2022-12-29T04:06:41.536Z,54.30
2022-12-29T04:07:13.496Z,54.37
2022-12-29T04:07:45.450Z,54.41
2022-12-29T04:08:17.452Z,54.40
2022-12-29T04:08:49.788Z,54.33
2022-12-29T04:09:21.711Z,54.44
2022-12-29T04:09:53.742Z,54.37
2022-12-29T04:10:25.874Z,54.42
2022-12-29T04:10:58.028Z,54.44
2022-12-29T04:11:33.251Z,54.47
2022-12-29T04:12:06.677Z,54.44
2022-12-29T04:12:39.438Z,54.39
2022-12-29T04:13:11.663Z,54.38
2022-12-29T04:13:43.673Z,54.21
2022-12-29T04:14:15.591Z,54.26
2022-12-29T04:14:47.853Z,54.33
2022-12-29T04:15:19.859Z,54.42
2022-12-29T04:15:51.912Z,54.25
2022-12-29T04:16:24.080Z,54.14
2022-12-29T04:16:56.431Z,54.12
2022-12-29T04:17:28.546Z,54.09
2022-12-29T04:18:00.599Z,54.16
2022-12-29T04:18:32.735Z,54.23
2022-12-29T04:19:06.513Z,54.29
2022-12-29T04:19:40.116Z,54.35
2022-12-29T04:20:30.685Z,54.33
2022-12-29T04:21:04.102Z,54.30
2022-12-29T04:21:36.042Z,54.32
2022-12-29T04:22:08.004Z,54.25
2022-12-29T04:22:40.125Z,54.28
2022-12-29T04:23:12.118Z,54.16
2022-12-29T04:23:44.229Z,54.23
2022-12-29T04:24:16.314Z,54.22
2022-12-29T04:24:50.872Z,54.20
2022-12-29T04:25:22.803Z,54.18
2022-12-29T04:25:54.850Z,53.94
2022-12-29T04:26:26.896Z,53.94
2022-12-29T04:26:58.863Z,53.89
2022-12-29T04:27:30.870Z,53.73
2022-12-29T04:28:03.241Z,53.95
2022-12-29T04:28:36.417Z,54.05
2022-12-29T04:29:08.829Z,53.91
2022-12-29T04:29:40.852Z,53.78
2022-12-29T04:30:13.066Z,53.62
2022-12-29T04:30:47.281Z,53.61
2022-12-29T04:31:19.556Z,53.59
2022-12-29T04:31:51.627Z,53.65
2022-12-29T04:32:23.505Z,53.65
2022-12-29T04:32:55.743Z,53.53
2022-12-29T04:33:28.311Z,53.38
2022-12-29T04:34:00.711Z,53.31
2022-12-29T04:34:32.806Z,53.26
2022-12-29T04:35:06.313Z,53.10
2022-12-29T04:35:38.247Z,52.99
2022-12-29T04:36:10.328Z,53.06
2022-12-29T04:36:42.266Z,53.15
2022-12-29T04:37:14.271Z,53.06
2022-12-29T04:37:46.392Z,53.06
2022-12-29T04:38:18.669Z,53.07
2022-12-29T04:38:50.575Z,52.92
2022-12-29T04:39:22.552Z,52.78
2022-12-29T04:39:54.429Z,52.80
2022-12-29T04:40:26.446Z,52.82
2022-12-29T04:41:02.466Z,52.84
2022-12-29T04:41:34.816Z,52.89
2022-12-29T04:42:06.848Z,52.94
2022-12-29T04:42:40.027Z,52.90
2022-12-29T04:43:12.900Z,52.78
2022-12-29T04:43:45.008Z,52.71
2022-12-29T04:44:16.955Z,52.84
2022-12-29T04:44:50.159Z,53.00
2022-12-29T04:45:22.397Z,52.86
2022-12-29T04:45:55.059Z,52.80
2022-12-29T04:46:27.247Z,52.88
2022-12-29T04:46:59.290Z,52.92
2022-12-29T04:47:31.269Z,52.81
2022-12-29T04:48:03.453Z,52.67
2022-12-29T04:48:35.442Z,52.62
2022-12-29T04:49:09.072Z,52.63
2022-12-29T04:49:41.237Z,52.61
2022-12-29T04:50:13.188Z,52.59
2022-12-29T04:50:48.728Z,52.64
2022-12-29T04:51:20.836Z,52.60
2022-12-29T04:51:52.883Z,52.46
2022-12-29T04:52:24.857Z,52.34
2022-12-29T04:52:56.720Z,52.31
2022-12-29T04:53:28.610Z,52.25
2022-12-29T04:54:00.786Z,52.24
2022-12-29T04:54:32.676Z,52.10
2022-12-29T04:55:06.033Z,51.94
2022-12-29T04:55:37.923Z,51.88
2022-12-29T04:56:09.918Z,51.85
2022-12-29T04:56:41.840Z,51.67
2022-12-29T04:57:13.907Z,51.61
2022-12-29T04:57:46.507Z,51.46
2022-12-29T04:58:22.854Z,51.43
2022-12-29T04:58:55.232Z,51.57
2022-12-29T04:59:27.372Z,51.64
2022-12-29T04:59:59.358Z,51.72
2022-12-29T05:00:31.423Z,51.84
2022-12-29T05:01:03.542Z,51.91
2022-12-29T05:01:35.621Z,51.95
2022-12-29T05:02:08.136Z,52.00
2022-12-29T05:02:40.547Z,51.94
2022-12-29T05:03:12.988Z,51.88
2022-12-29T05:03:45.071Z,51.91
2022-12-29T05:04:17.115Z,51.82
2022-12-29T05:04:49.458Z,51.79
2022-12-29T05:05:21.367Z,51.96
2022-12-29T05:05:57.569Z,52.11
2022-12-29T05:06:29.609Z,52.12
2022-12-29T05:07:01.673Z,52.02
2022-12-29T05:07:34.081Z,51.98
2022-12-29T05:08:06.222Z,51.88
2022-12-29T05:08:38.254Z,51.79
2022-12-29T05:09:10.391Z,51.84
2022-12-29T05:09:42.386Z,51.78
2022-12-29T05:10:14.554Z,51.76
2022-12-29T05:10:46.872Z,51.92
2022-12-29T05:11:18.956Z,51.90
2022-12-29T05:11:50.774Z,51.92
2022-12-29T05:12:22.735Z,51.87
2022-12-29T05:12:54.867Z,51.79
2022-12-29T05:13:26.793Z,51.85
2022-12-29T05:13:58.830Z,51.95
2022-12-29T05:14:30.882Z,51.88
2022-12-29T05:15:04.280Z,51.75
2022-12-29T05:15:36.278Z,51.83
2022-12-29T05:16:08.446Z,51.88
2022-12-29T05:16:40.722Z,51.63
2022-12-29T05:17:12.756Z,51.59
2022-12-29T05:17:44.700Z,51.60
2022-12-29T05:18:17.506Z,51.67
2022-12-29T05:18:50.126Z,51.76
2022-12-29T05:19:22.116Z,51.84
2022-12-29T05:19:54.132Z,51.80
2022-12-29T05:20:26.395Z,51.74
2022-12-29T05:20:58.546Z,51.69
2022-12-29T05:21:30.684Z,51.64
2022-12-29T05:22:02.750Z,51.48
2022-12-29T05:22:34.844Z,51.40
2022-12-29T05:23:06.814Z,51.45
2022-12-29T05:23:38.901Z,51.45
2022-12-29T05:24:10.968Z,51.15
2022-12-29T05:24:43.035Z,51.20
2022-12-29T05:25:15.139Z,51.03
2022-12-29T05:25:47.295Z,51.00
2022-12-29T05:26:19.387Z,50.84
2022-12-29T05:26:51.797Z,50.80
2022-12-29T05:27:24.039Z,50.77
2022-12-29T05:27:55.938Z,50.79
2022-12-29T05:28:27.945Z,50.75
2022-12-29T05:29:00.537Z,50.77
2022-12-29T05:29:32.625Z,50.72
2022-12-29T05:30:04.902Z,50.73
2022-12-29T05:30:36.939Z,50.82
2022-12-29T05:31:08.913Z,50.78
2022-12-29T05:31:40.862Z,50.73
2022-12-29T05:32:12.984Z,50.54
2022-12-29T05:32:44.917Z,50.58
2022-12-29T05:33:18.631Z,50.59
2022-12-29T05:33:50.651Z,50.66
2022-12-29T05:34:22.560Z,50.76
2022-12-29T05:34:54.679Z,50.84
2022-12-29T05:35:26.813Z,51.01
2022-12-29T05:36:07.883Z,51.16
2022-12-29T05:36:40.445Z,51.00
2022-12-29T05:37:12.673Z,50.87
2022-12-29T05:37:44.802Z,50.83
2022-12-29T05:38:16.904Z,51.00
2022-12-29T05:38:51.192Z,51.06
2022-12-29T05:39:23.389Z,51.03
2022-12-29T05:39:56.180Z,51.12
2022-12-29T05:40:28.478Z,51.07
2022-12-29T05:41:00.834Z,50.76
2022-12-29T05:41:33.262Z,50.59
2022-12-29T05:42:05.495Z,50.78
2022-12-29T05:42:37.419Z,50.87
2022-12-29T05:43:09.581Z,51.10
2022-12-29T05:43:41.671Z,51.13
2022-12-29T05:44:13.776Z,51.18
2022-12-29T05:44:45.772Z,51.18
2022-12-29T05:45:17.821Z,51.06
2022-12-29T05:45:50.639Z,50.97
2022-12-29T05:46:22.691Z,50.92
2022-12-29T05:46:55.084Z,50.94
2022-12-29T05:47:27.213Z,50.91
2022-12-29T05:47:59.329Z,50.93
2022-12-29T05:48:36.011Z,51.08
2022-12-29T05:49:09.810Z,51.13
2022-12-29T05:49:41.974Z,51.12
2022-12-29T05:50:13.886Z,51.05
2022-12-29T05:50:50.066Z,51.21
2022-12-29T05:51:22.173Z,51.16
2022-12-29T05:51:54.820Z,51.15
2022-12-29T05:52:26.905Z,50.92
2022-12-29T05:52:58.874Z,51.03
2022-12-29T05:53:30.826Z,50.94
2022-12-29T05:54:03.313Z,50.83
2022-12-29T05:54:36.095Z,50.95
2022-12-29T05:55:08.307Z,51.00
2022-12-29T05:55:46.605Z,51.07
2022-12-29T05:56:20.941Z,51.15
2022-12-29T05:56:53.142Z,51.20
2022-12-29T05:57:25.279Z,51.18
2022-12-29T05:57:58.476Z,51.20
2022-12-29T05:58:31.083Z,51.25
2022-12-29T05:59:03.040Z,51.36
2022-12-29T05:59:35.099Z,51.44
2022-12-29T06:00:08.477Z,51.36
2022-12-29T06:00:40.950Z,51.30
2022-12-29T06:01:12.862Z,51.37
2022-12-29T06:01:45.141Z,51.51
2022-12-29T06:02:17.300Z,51.66
2022-12-29T06:02:50.086Z,51.64
2022-12-29T06:03:22.557Z,51.64
2022-12-29T06:03:54.937Z,51.50
2022-12-29T06:04:27.024Z,51.38
2022-12-29T06:04:59.158Z,51.28
2022-12-29T06:05:31.495Z,51.26
2022-12-29T06:06:03.862Z,51.26
2022-12-29T06:06:35.956Z,51.22
2022-12-29T06:07:08.171Z,51.08
2022-12-29T06:07:40.276Z,50.96
2022-12-29T06:08:12.849Z,51.00
2022-12-29T06:08:44.930Z,51.06
2022-12-29T06:09:16.912Z,50.93
2022-12-29T06:09:49.453Z,51.01
2022-12-29T06:10:21.674Z,51.03
2022-12-29T06:10:53.824Z,51.03
2022-12-29T06:11:26.235Z,50.95
2022-12-29T06:11:58.291Z,50.88
2022-12-29T06:12:30.305Z,50.81
2022-12-29T06:13:04.427Z,50.89
2022-12-29T06:13:36.441Z,50.95
2022-12-29T06:14:08.411Z,50.99
2022-12-29T06:14:40.455Z,50.98
2022-12-29T06:15:12.666Z,51.17
2022-12-29T06:15:44.721Z,51.21
2022-12-29T06:16:17.007Z,51.25
2022-12-29T06:16:49.524Z,51.13
2022-12-29T06:17:21.861Z,51.10
2022-12-29T06:17:53.993Z,51.17
2022-12-29T06:18:25.998Z,51.06
2022-12-29T06:18:57.986Z,51.00
2022-12-29T06:19:30.129Z,51.13
2022-12-29T06:20:03.123Z,51.19
2022-12-29T06:20:35.078Z,51.19
2022-12-29T06:21:07.071Z,51.23
2022-12-29T06:21:39.558Z,51.15
2022-12-29T06:22:12.775Z,51.17
2022-12-29T06:22:44.720Z,51.24
2022-12-29T06:23:19.042Z,51.17
2022-12-29T06:23:51.070Z,51.19
2022-12-29T06:24:23.355Z,51.28
2022-12-29T06:24:57.884Z,51.26
2022-12-29T06:25:34.733Z,51.28
2022-12-29T06:26:06.837Z,51.29
2022-12-29T06:26:39.408Z,51.08
2022-12-29T06:27:11.762Z,51.06
2022-12-29T06:27:44.410Z,51.04
2022-12-29T06:28:17.778Z,51.03
2022-12-29T06:28:50.152Z,51.11
2022-12-29T06:29:22.176Z,51.10
2022-12-29T06:29:54.373Z,51.12
2022-12-29T06:30:26.749Z,51.17
2022-12-29T06:30:58.696Z,51.21
2022-12-29T06:31:30.666Z,51.18
2022-12-29T06:32:02.681Z,51.09
2022-12-29T06:32:34.834Z,51.07
2022-12-29T06:33:08.791Z,51.09
2022-12-29T06:33:40.980Z,51.01
2022-12-29T06:34:13.584Z,50.91
2022-12-29T06:34:45.667Z,50.83
2022-12-29T06:35:18.272Z,50.71
2022-12-29T06:35:50.174Z,50.71
2022-12-29T06:36:22.889Z,50.86
2022-12-29T06:36:55.006Z,50.85
2022-12-29T06:37:28.378Z,50.76
2022-12-29T06:38:00.501Z,50.86
2022-12-29T06:38:32.831Z,51.04
2022-12-29T06:39:04.888Z,50.98
2022-12-29T06:39:37.223Z,50.93
2022-12-29T06:40:09.987Z,50.81
2022-12-29T06:40:45.348Z,50.78
2022-12-29T06:41:17.497Z,50.86
2022-12-29T06:41:53.960Z,50.91
2022-12-29T06:42:26.148Z,51.00
2022-12-29T06:42:58.219Z,50.98
2022-12-29T06:43:31.152Z,50.88
2022-12-29T06:44:03.284Z,50.85
2022-12-29T06:44:35.375Z,50.90
2022-12-29T06:45:08.090Z,50.93
2022-12-29T06:45:41.176Z,51.05
2022-12-29T06:46:13.434Z,51.09
2022-12-29T06:46:45.467Z,51.14
2022-12-29T06:47:17.522Z,51.09
2022-12-29T06:47:49.682Z,50.99
2022-12-29T06:48:21.673Z,50.85
2022-12-29T06:48:53.724Z,50.83
2022-12-29T06:49:25.644Z,50.80
2022-12-29T06:49:57.746Z,50.74
2022-12-29T06:50:29.799Z,50.77
2022-12-29T06:51:01.677Z,50.85
2022-12-29T06:51:33.844Z,50.85
2022-12-29T06:52:10.743Z,50.78
2022-12-29T06:52:44.946Z,50.72
2022-12-29T06:53:16.884Z,50.81
2022-12-29T06:53:49.116Z,50.87
2022-12-29T06:54:21.207Z,50.91
2022-12-29T06:54:53.125Z,50.78
2022-12-29T06:55:25.092Z,50.92
2022-12-29T06:55:57.245Z,50.88
2022-12-29T06:56:29.362Z,50.86
2022-12-29T06:57:01.321Z,50.81
2022-12-29T06:57:33.254Z,50.83
2022-12-29T06:58:05.714Z,50.86
2022-12-29T06:58:38.154Z,50.79
2022-12-29T06:59:10.586Z,50.81
2022-12-29T06:59:42.605Z,50.83
2022-12-29T07:00:18.125Z,50.96
2022-12-29T07:00:54.378Z,51.06
2022-12-29T07:01:26.625Z,51.12
2022-12-29T07:01:58.768Z,51.22
2022-12-29T07:02:30.957Z,51.12
2022-12-29T07:03:03.279Z,50.92
2022-12-29T07:03:36.812Z,50.73
2022-12-29T07:04:08.998Z,50.65
2022-12-29T07:04:41.209Z,50.78
2022-12-29T07:05:14.247Z,50.68
2022-12-29T07:05:46.546Z,50.54
2022-12-29T07:06:18.851Z,50.60
2022-12-29T07:06:51.108Z,50.64
2022-12-29T07:07:23.344Z,50.57
2022-12-29T07:07:56.135Z,50.75
2022-12-29T07:08:28.272Z,50.81
2022-12-29T07:09:00.354Z,50.85
2022-12-29T07:09:32.678Z,50.90
2022-12-29T07:10:06.164Z,50.94
2022-12-29T07:10:38.164Z,51.07
2022-12-29T07:11:10.231Z,51.09
2022-12-29T07:11:42.286Z,51.19
2022-12-29T07:12:14.683Z,51.20
2022-12-29T07:12:46.612Z,51.06
2022-12-29T07:13:19.136Z,50.99
2022-12-29T07:13:51.837Z,51.00
2022-12-29T07:14:23.913Z,51.13
2022-12-29T07:14:56.093Z,51.17
2022-12-29T07:15:28.231Z,51.27
2022-12-29T07:16:00.411Z,51.31
2022-12-29T07:16:33.179Z,51.19
2022-12-29T07:17:06.790Z,51.12
2022-12-29T07:17:39.146Z,51.08
2022-12-29T07:18:11.276Z,51.12
2022-12-29T07:18:43.693Z,51.00
2022-12-29T07:19:16.020Z,50.98
2022-12-29T07:19:48.089Z,51.09
2022-12-29T07:20:26.274Z,51.13
2022-12-29T07:20:58.965Z,51.23
2022-12-29T07:21:31.312Z,51.21
2022-12-29T07:22:03.307Z,51.16
2022-12-29T07:22:35.468Z,51.03
2022-12-29T07:23:07.601Z,51.17
2022-12-29T07:23:39.906Z,51.34
2022-12-29T07:24:12.131Z,51.16
2022-12-29T07:24:44.191Z,51.15
2022-12-29T07:25:16.324Z,51.15
2022-12-29T07:25:49.631Z,51.12
2022-12-29T07:26:22.595Z,51.23
2022-12-29T07:26:54.798Z,51.28
2022-12-29T07:27:26.939Z,51.20
2022-12-29T07:27:59.038Z,51.10
2022-12-29T07:28:32.795Z,51.18
2022-12-29T07:29:05.124Z,51.29
2022-12-29T07:29:39.903Z,51.31
2022-12-29T07:30:12.828Z,51.33
2022-12-29T07:30:47.148Z,51.21
2022-12-29T07:31:23.296Z,51.15
2022-12-29T07:31:55.374Z,51.22
2022-12-29T07:32:27.663Z,51.33
2022-12-29T07:32:59.686Z,51.43
2022-12-29T07:33:33.212Z,51.51
2022-12-29T07:34:05.867Z,51.45
2022-12-29T07:34:39.999Z,51.39
2022-12-29T07:35:12.165Z,51.27
2022-12-29T07:35:44.450Z,51.42
2022-12-29T07:36:17.004Z,51.46
2022-12-29T07:36:48.969Z,51.51
2022-12-29T07:37:21.101Z,51.58
2022-12-29T07:37:53.256Z,51.58
2022-12-29T07:38:25.445Z,51.45
2022-12-29T07:38:57.916Z,51.48
2022-12-29T07:39:30.451Z,51.57
2022-12-29T07:40:04.128Z,51.72
2022-12-29T07:40:36.618Z,51.71